sensor_id;sensor_type;location;lat;lon;timestamp;temperature;humidity
21883;DHT22;11106;47.864;13.054;2023-10-13T00:02:53;16.10;99.90
21883;DHT22;11106;47.864;13.054;2023-10-13T00:07:53;16.00;99.90
21883;DHT22;11106;47.864;13.054;2023-10-13T00:12:55;15.90;99.90
21883;DHT22;11106;47.864;13.054;2023-10-13T01:54:08;15.90;99.90
21883;DHT22;11106;47.864;13.054;2023-10-13T01:59:13;14.40;99.90
21883;DHT22;11106;47.864;13.054;2023-10-13T02:04:13;14.30;99.90
21883;DHT22;11106;47.864;13.054;2023-10-13T02:09:16;14.20;99.90
21883;DHT22;11106;47.864;13.054;2023-10-13T02:14:30;14.20;99.90
21883;DHT22;11106;47.864;13.054;2023-10-13T02:24:34;14.10;99.90
21883;DHT22;11106;47.864;13.054;2023-10-13T07:25:29;14.00;99.90
21883;DHT22;11106;47.864;13.054;2023-10-13T15:27:48;26.40;78.90
21883;DHT22;11106;47.864;13.054;2023-10-13T15:48:02;24.20;89.80
21883;DHT22;11106;47.864;13.054;2023-10-13T16:08:12;23.30;91.50
21883;DHT22;11106;47.864;13.054;2023-10-13T16:13:12;22.40;92.20
21883;DHT22;11106;47.864;13.054;2023-10-13T16:38:26;22.10;92.60
21883;DHT22;11106;47.864;13.054;2023-10-13T16:43:28;21.10;94.00
21883;DHT22;11106;47.864;13.054;2023-10-13T16:48:29;20.90;94.90
21883;DHT22;11106;47.864;13.054;2023-10-13T16:53:31;20.60;95.10
21883;DHT22;11106;47.864;13.054;2023-10-13T16:58:34;20.50;95.60
21883;DHT22;11106;47.864;13.054;2023-10-13T17:03:38;20.30;94.80
21883;DHT22;11106;47.864;13.054;2023-10-13T17:08:39;20.00;94.60
21883;DHT22;11106;47.864;13.054;2023-10-13T17:13:43;19.80;95.10
21883;DHT22;11106;47.864;13.054;2023-10-13T17:18:46;19.60;97.30
21883;DHT22;11106;47.864;13.054;2023-10-13T17:23:48;19.50;97.20
21883;DHT22;11106;47.864;13.054;2023-10-13T17:28:51;19.30;97.10
21883;DHT22;11106;47.864;13.054;2023-10-13T17:33:55;19.10;96.90
21883;DHT22;11106;47.864;13.054;2023-10-13T17:38:58;19.00;96.50
21883;DHT22;11106;47.864;13.054;2023-10-13T17:43:59;18.70;96.40
21883;DHT22;11106;47.864;13.054;2023-10-13T17:49:02;18.60;97.20
21883;DHT22;11106;47.864;13.054;2023-10-13T17:54:03;18.50;97.00
21883;DHT22;11106;47.864;13.054;2023-10-13T17:59:05;18.30;97.50
21883;DHT22;11106;47.864;13.054;2023-10-13T18:04:05;18.30;97.00
21883;DHT22;11106;47.864;13.054;2023-10-13T18:09:10;18.10;97.60
21883;DHT22;11106;47.864;13.054;2023-10-13T18:14:11;18.00;98.40
21883;DHT22;11106;47.864;13.054;2023-10-13T18:19:12;17.80;98.50
21883;DHT22;11106;47.864;13.054;2023-10-13T18:24:14;17.70;98.40
21883;DHT22;11106;47.864;13.054;2023-10-13T18:29:15;17.60;98.40
21883;DHT22;11106;47.864;13.054;2023-10-13T18:34:16;17.50;98.60
21883;DHT22;11106;47.864;13.054;2023-10-13T18:39:18;17.40;98.60
21883;DHT22;11106;47.864;13.054;2023-10-13T18:44:19;17.30;98.70
21883;DHT22;11106;47.864;13.054;2023-10-13T18:49:23;17.10;98.80
21883;DHT22;11106;47.864;13.054;2023-10-13T18:54:25;17.10;99.60
21883;DHT22;11106;47.864;13.054;2023-10-13T18:59:25;16.90;99.70
21883;DHT22;11106;47.864;13.054;2023-10-13T19:04:27;16.80;99.90
21883;DHT22;11106;47.864;13.054;2023-10-13T19:09:28;16.50;99.90
21883;DHT22;11106;47.864;13.054;2023-10-13T19:14:28;16.40;99.90
21883;DHT22;11106;47.864;13.054;2023-10-13T19:19:29;16.30;99.90
21883;DHT22;11106;47.864;13.054;2023-10-13T19:24:32;16.10;99.90
21883;DHT22;11106;47.864;13.054;2023-10-13T19:29:34;16.00;99.90
21883;DHT22;11106;47.864;13.054;2023-10-13T19:34:34;15.90;99.90
21883;DHT22;11106;47.864;13.054;2023-10-13T19:39:35;15.80;99.90
21883;DHT22;11106;47.864;13.054;2023-10-13T19:44:41;15.70;99.90
21883;DHT22;11106;47.864;13.054;2023-10-13T19:49:43;15.60;99.90
21883;DHT22;11106;47.864;13.054;2023-10-13T19:54:45;15.40;99.90
21883;DHT22;11106;47.864;13.054;2023-10-13T19:59:46;15.30;99.90
21883;DHT22;11106;47.864;13.054;2023-10-13T20:04:46;15.20;99.90
21883;DHT22;11106;47.864;13.054;2023-10-13T20:09:47;15.10;99.90
21883;DHT22;11106;47.864;13.054;2023-10-13T20:14:47;14.90;99.90
21883;DHT22;11106;47.864;13.054;2023-10-13T20:19:48;14.90;99.90
21883;DHT22;11106;47.864;13.054;2023-10-13T20:24:48;14.60;99.90
21883;DHT22;11106;47.864;13.054;2023-10-13T20:29:49;14.50;99.90
21883;DHT22;11106;47.864;13.054;2023-10-13T20:34:51;14.40;99.90
21883;DHT22;11106;47.864;13.054;2023-10-13T20:39:52;14.30;99.90
21883;DHT22;11106;47.864;13.054;2023-10-13T20:44:56;14.20;99.90
21883;DHT22;11106;47.864;13.054;2023-10-13T20:49:57;14.10;99.90
21883;DHT22;11106;47.864;13.054;2023-10-13T21:04:59;14.00;99.90
21883;DHT22;11106;47.864;13.054;2023-10-13T21:10:00;13.70;99.90
21883;DHT22;11106;47.864;13.054;2023-10-13T21:15:00;13.70;99.90
21883;DHT22;11106;47.864;13.054;2023-10-13T21:20:01;13.60;99.90
21883;DHT22;11106;47.864;13.054;2023-10-13T21:25:05;13.40;99.90
21883;DHT22;11106;47.864;13.054;2023-10-13T21:30:06;13.40;99.90
21883;DHT22;11106;47.864;13.054;2023-10-13T21:35:08;13.20;99.90
21883;DHT22;11106;47.864;13.054;2023-10-13T21:40:08;13.30;99.90
21883;DHT22;11106;47.864;13.054;2023-10-13T21:45:09;13.20;99.90
21883;DHT22;11106;47.864;13.054;2023-10-13T21:50:11;13.10;99.90
21883;DHT22;11106;47.864;13.054;2023-10-13T21:55:18;13.00;99.90
21883;DHT22;11106;47.864;13.054;2023-10-13T22:00:19;13.00;99.90
21883;DHT22;11106;47.864;13.054;2023-10-13T22:05:29;13.00;99.90
21883;DHT22;11106;47.864;13.054;2023-10-13T22:10:30;12.90;99.90
21883;DHT22;11106;47.864;13.054;2023-10-13T22:15:33;12.90;99.90
21883;DHT22;11106;47.864;13.054;2023-10-13T22:20:33;12.80;99.90
21883;DHT22;11106;47.864;13.054;2023-10-13T22:25:36;12.80;99.90
21883;DHT22;11106;47.864;13.054;2023-10-13T22:30:37;12.70;99.90
21883;DHT22;11106;47.864;13.054;2023-10-13T22:40:41;12.70;99.90
21883;DHT22;11106;47.864;13.054;2023-10-13T22:45:43;12.50;99.90
21883;DHT22;11106;47.864;13.054;2023-10-13T22:50:44;12.50;99.90
21883;DHT22;11106;47.864;13.054;2023-10-13T22:55:45;12.40;99.90
21883;DHT22;11106;47.864;13.054;2023-10-13T23:00:46;12.40;99.90
21883;DHT22;11106;47.864;13.054;2023-10-13T23:05:49;12.30;99.90
21883;DHT22;11106;47.864;13.054;2023-10-13T23:10:53;12.30;99.90
21883;DHT22;11106;47.864;13.054;2023-10-13T23:15:53;12.30;99.90
21883;DHT22;11106;47.864;13.054;2023-10-13T23:20:54;12.30;99.90
21883;DHT22;11106;47.864;13.054;2023-10-13T23:25:55;12.30;99.90
21883;DHT22;11106;47.864;13.054;2023-10-13T23:30:55;12.20;99.90
21883;DHT22;11106;47.864;13.054;2023-10-13T23:35:57;12.20;99.90
21883;DHT22;11106;47.864;13.054;2023-10-13T23:40:57;12.20;99.90
21883;DHT22;11106;47.864;13.054;2023-10-13T23:45:58;12.20;99.90
21883;DHT22;11106;47.864;13.054;2023-10-13T23:50:59;12.10;99.90
21883;DHT22;11106;47.864;13.054;2023-10-13T23:56:07;12.00;99.90
